sensor_id;sensor_type;location;lat;lon;timestamp;pressure;altitude;pressure_sealevel;temperature;humidity
5954;BME280;3002;42.642;24.812;2022-12-18T00:00:46;97024.72;;;15.11;100.00
5954;BME280;3002;42.642;24.812;2022-12-18T00:03:14;97003.34;;;14.73;100.00
5954;BME280;3002;42.642;24.812;2022-12-18T00:06:00;97003.34;;;15.01;100.00
5954;BME280;3002;42.642;24.812;2022-12-18T00:08:25;97011.31;;;14.51;100.00
5954;BME280;3002;42.642;24.812;2022-12-18T00:10:51;97037.16;;;14.84;100.00
5954;BME280;3002;42.642;24.812;2022-12-18T00:13:21;97043.03;;;14.72;100.00
5954;BME280;3002;42.642;24.812;2022-12-18T00:15:47;97035.13;;;14.49;100.00
5954;BME280;3002;42.642;24.812;2022-12-18T00:18:21;97017.66;;;14.27;100.00
5954;BME280;3002;42.642;24.812;2022-12-18T00:20:49;97020.56;;;14.31;100.00
5954;BME280;3002;42.642;24.812;2022-12-18T00:23:16;97029.81;;;14.57;100.00
5954;BME280;3002;42.642;24.812;2022-12-18T00:25:47;97048.56;;;14.95;100.00
5954;BME280;3002;42.642;24.812;2022-12-18T00:28:15;97040.53;;;14.90;100.00
5954;BME280;3002;42.642;24.812;2022-12-18T00:31:02;97061.94;;;15.14;100.00
5954;BME280;3002;42.642;24.812;2022-12-18T00:33:39;97048.84;;;14.93;100.00
5954;BME280;3002;42.642;24.812;2022-12-18T00:36:12;97077.03;;;15.15;100.00
5954;BME280;3002;42.642;24.812;2022-12-18T00:38:57;97083.75;;;15.31;100.00
5954;BME280;3002;42.642;24.812;2022-12-18T00:41:31;97045.03;;;15.08;100.00
5954;BME280;3002;42.642;24.812;2022-12-18T00:44:17;97070.75;;;15.19;100.00
5954;BME280;3002;42.642;24.812;2022-12-18T00:46:45;97076.22;;;15.42;100.00
5954;BME280;3002;42.642;24.812;2022-12-18T00:49:12;97082.44;;;15.42;100.00
5954;BME280;3002;42.642;24.812;2022-12-18T00:51:40;97075.72;;;15.40;100.00
5954;BME280;3002;42.642;24.812;2022-12-18T00:54:05;97047.34;;;15.01;100.00
5954;BME280;3002;42.642;24.812;2022-12-18T00:56:31;97066.16;;;15.06;100.00
5954;BME280;3002;42.642;24.812;2022-12-18T00:58:57;97052.34;;;14.80;100.00
5954;BME280;3002;42.642;24.812;2022-12-18T01:01:29;97067.75;;;14.80;100.00
5954;BME280;3002;42.642;24.812;2022-12-18T01:04:00;97065.94;;;14.89;100.00
5954;BME280;3002;42.642;24.812;2022-12-18T01:06:30;97063.66;;;14.82;100.00
5954;BME280;3002;42.642;24.812;2022-12-18T01:08:57;97035.63;;;14.51;100.00
5954;BME280;3002;42.642;24.812;2022-12-18T01:11:23;97036.19;;;14.01;100.00
5954;BME280;3002;42.642;24.812;2022-12-18T01:13:49;97047.31;;;14.27;100.00
5954;BME280;3002;42.642;24.812;2022-12-18T01:16:18;97034.47;;;14.38;100.00
5954;BME280;3002;42.642;24.812;2022-12-18T01:18:43;97061.38;;;14.43;100.00
5954;BME280;3002;42.642;24.812;2022-12-18T01:21:12;97062.59;;;14.51;100.00
5954;BME280;3002;42.642;24.812;2022-12-18T01:23:38;97064.03;;;14.62;100.00
5954;BME280;3002;42.642;24.812;2022-12-18T01:26:08;97042.06;;;14.36;100.00
5954;BME280;3002;42.642;24.812;2022-12-18T01:28:34;97064.34;;;14.09;100.00
5954;BME280;3002;42.642;24.812;2022-12-18T01:33:40;97054.59;;;13.61;100.00
5954;BME280;3002;42.642;24.812;2022-12-18T01:36:18;97069.72;;;13.76;100.00
5954;BME280;3002;42.642;24.812;2022-12-18T01:39:15;97069.53;;;14.38;100.00
5954;BME280;3002;42.642;24.812;2022-12-18T01:41:44;97039.34;;;14.22;100.00
5954;BME280;3002;42.642;24.812;2022-12-18T01:52:42;97086.44;;;14.43;100.00
5954;BME280;3002;42.642;24.812;2022-12-18T01:55:36;97096.81;;;14.69;100.00
5954;BME280;3002;42.642;24.812;2022-12-18T01:58:15;97089.63;;;14.32;100.00
5954;BME280;3002;42.642;24.812;2022-12-18T02:00:42;97061.16;;;14.39;100.00
5954;BME280;3002;42.642;24.812;2022-12-18T02:03:10;97061.63;;;14.47;100.00
5954;BME280;3002;42.642;24.812;2022-12-18T02:05:59;97052.16;;;14.30;100.00
5954;BME280;3002;42.642;24.812;2022-12-18T02:14:55;97064.31;;;14.74;100.00
5954;BME280;3002;42.642;24.812;2022-12-18T02:17:30;97044.50;;;14.51;100.00
5954;BME280;3002;42.642;24.812;2022-12-18T02:23:01;97042.28;;;13.74;100.00
5954;BME280;3002;42.642;24.812;2022-12-18T02:28:06;97072.09;;;14.48;100.00
5954;BME280;3002;42.642;24.812;2022-12-18T02:30:37;97049.13;;;14.18;100.00
5954;BME280;3002;42.642;24.812;2022-12-18T02:33:08;97070.25;;;13.59;100.00
5954;BME280;3002;42.642;24.812;2022-12-18T02:35:36;97027.25;;;13.30;100.00
5954;BME280;3002;42.642;24.812;2022-12-18T02:38:04;97058.16;;;13.76;100.00
5954;BME280;3002;42.642;24.812;2022-12-18T02:40:30;97070.97;;;13.65;100.00
5954;BME280;3002;42.642;24.812;2022-12-18T02:43:12;97085.13;;;14.08;100.00
5954;BME280;3002;42.642;24.812;2022-12-18T02:48:32;97075.50;;;14.54;100.00
5954;BME280;3002;42.642;24.812;2022-12-18T02:51:18;97088.44;;;14.38;100.00
5954;BME280;3002;42.642;24.812;2022-12-18T02:53:58;97102.38;;;14.26;100.00
5954;BME280;3002;42.642;24.812;2022-12-18T02:56:38;97066.13;;;14.00;100.00
5954;BME280;3002;42.642;24.812;2022-12-18T02:59:14;97084.09;;;14.23;100.00
5954;BME280;3002;42.642;24.812;2022-12-18T03:04:55;97055.50;;;13.89;100.00
5954;BME280;3002;42.642;24.812;2022-12-18T03:07:38;97075.41;;;13.75;100.00
5954;BME280;3002;42.642;24.812;2022-12-18T03:10:07;97107.84;;;13.88;100.00
5954;BME280;3002;42.642;24.812;2022-12-18T03:12:38;97099.38;;;13.76;100.00
5954;BME280;3002;42.642;24.812;2022-12-18T03:15:11;97083.94;;;13.63;100.00
5954;BME280;3002;42.642;24.812;2022-12-18T03:17:44;97116.41;;;13.72;100.00
5954;BME280;3002;42.642;24.812;2022-12-18T03:20:17;97118.75;;;13.59;100.00
5954;BME280;3002;42.642;24.812;2022-12-18T03:22:49;97106.22;;;13.50;100.00
5954;BME280;3002;42.642;24.812;2022-12-18T03:25:19;97127.56;;;13.65;100.00
5954;BME280;3002;42.642;24.812;2022-12-18T03:27:51;97096.75;;;13.52;100.00
5954;BME280;3002;42.642;24.812;2022-12-18T03:30:33;97122.97;;;13.65;100.00
5954;BME280;3002;42.642;24.812;2022-12-18T03:33:28;97121.88;;;13.66;100.00
5954;BME280;3002;42.642;24.812;2022-12-18T03:35:52;97109.41;;;13.33;100.00
5954;BME280;3002;42.642;24.812;2022-12-18T03:38:19;97124.94;;;13.60;100.00
5954;BME280;3002;42.642;24.812;2022-12-18T03:44:05;97132.03;;;13.93;100.00
5954;BME280;3002;42.642;24.812;2022-12-18T03:50:04;97121.38;;;14.02;100.00
5954;BME280;3002;42.642;24.812;2022-12-18T03:56:04;97143.91;;;13.92;100.00
5954;BME280;3002;42.642;24.812;2022-12-18T03:58:32;97139.38;;;14.07;100.00
5954;BME280;3002;42.642;24.812;2022-12-18T04:01:03;97146.38;;;13.89;100.00
5954;BME280;3002;42.642;24.812;2022-12-18T04:03:53;97146.97;;;13.86;100.00
5954;BME280;3002;42.642;24.812;2022-12-18T04:06:47;97140.47;;;13.87;100.00
5954;BME280;3002;42.642;24.812;2022-12-18T04:09:36;97145.22;;;13.76;100.00
5954;BME280;3002;42.642;24.812;2022-12-18T04:14:32;97132.88;;;13.51;100.00
5954;BME280;3002;42.642;24.812;2022-12-18T04:17:07;97117.06;;;13.45;100.00
5954;BME280;3002;42.642;24.812;2022-12-18T04:19:35;97142.53;;;13.33;100.00
5954;BME280;3002;42.642;24.812;2022-12-18T04:22:01;97130.22;;;13.27;100.00
5954;BME280;3002;42.642;24.812;2022-12-18T04:24:27;97127.38;;;13.13;100.00
5954;BME280;3002;42.642;24.812;2022-12-18T04:26:57;97136.47;;;13.18;100.00
5954;BME280;3002;42.642;24.812;2022-12-18T04:29:22;97141.16;;;13.07;100.00
5954;BME280;3002;42.642;24.812;2022-12-18T04:31:48;97123.47;;;13.01;100.00
5954;BME280;3002;42.642;24.812;2022-12-18T04:34:13;97137.00;;;12.96;100.00
5954;BME280;3002;42.642;24.812;2022-12-18T04:36:40;97137.47;;;12.74;100.00
5954;BME280;3002;42.642;24.812;2022-12-18T04:39:17;97145.22;;;12.80;100.00
5954;BME280;3002;42.642;24.812;2022-12-18T04:41:44;97184.94;;;12.94;100.00
5954;BME280;3002;42.642;24.812;2022-12-18T04:44:14;97177.56;;;12.75;100.00
5954;BME280;3002;42.642;24.812;2022-12-18T04:46:40;97181.44;;;12.64;100.00
5954;BME280;3002;42.642;24.812;2022-12-18T04:49:06;97196.31;;;12.51;100.00
5954;BME280;3002;42.642;24.812;2022-12-18T04:51:32;97174.72;;;12.27;100.00
5954;BME280;3002;42.642;24.812;2022-12-18T04:53:57;97214.41;;;12.46;100.00
5954;BME280;3002;42.642;24.812;2022-12-18T04:56:24;97196.94;;;12.43;100.00
5954;BME280;3002;42.642;24.812;2022-12-18T04:58:53;97192.44;;;12.33;100.00
5954;BME280;3002;42.642;24.812;2022-12-18T05:01:22;97193.53;;;12.32;100.00
5954;BME280;3002;42.642;24.812;2022-12-18T05:03:47;97202.50;;;12.18;100.00
5954;BME280;3002;42.642;24.812;2022-12-18T05:06:13;97225.28;;;12.30;100.00
5954;BME280;3002;42.642;24.812;2022-12-18T05:08:40;97202.44;;;12.23;100.00
5954;BME280;3002;42.642;24.812;2022-12-18T05:11:10;97196.00;;;12.24;100.00
5954;BME280;3002;42.642;24.812;2022-12-18T05:13:37;97220.81;;;12.50;100.00
5954;BME280;3002;42.642;24.812;2022-12-18T05:16:04;97231.63;;;12.45;100.00
5954;BME280;3002;42.642;24.812;2022-12-18T05:18:32;97232.06;;;12.57;100.00
5954;BME280;3002;42.642;24.812;2022-12-18T05:21:00;97243.34;;;12.59;100.00
5954;BME280;3002;42.642;24.812;2022-12-18T05:23:26;97208.00;;;12.42;100.00
5954;BME280;3002;42.642;24.812;2022-12-18T05:26:00;97250.56;;;12.69;100.00
5954;BME280;3002;42.642;24.812;2022-12-18T05:28:37;97264.88;;;12.93;100.00
5954;BME280;3002;42.642;24.812;2022-12-18T05:31:03;97257.50;;;12.75;100.00
5954;BME280;3002;42.642;24.812;2022-12-18T05:33:32;97239.84;;;12.58;100.00
5954;BME280;3002;42.642;24.812;2022-12-18T05:36:01;97219.97;;;12.59;100.00
5954;BME280;3002;42.642;24.812;2022-12-18T05:38:31;97269.19;;;12.94;100.00
5954;BME280;3002;42.642;24.812;2022-12-18T05:40:58;97268.81;;;13.06;100.00
5954;BME280;3002;42.642;24.812;2022-12-18T05:43:26;97269.72;;;13.25;100.00
5954;BME280;3002;42.642;24.812;2022-12-18T05:45:53;97264.47;;;13.10;100.00
5954;BME280;3002;42.642;24.812;2022-12-18T05:48:21;97244.69;;;12.96;100.00
5954;BME280;3002;42.642;24.812;2022-12-18T05:50:49;97256.34;;;13.15;100.00
5954;BME280;3002;42.642;24.812;2022-12-18T05:53:18;97248.88;;;13.07;100.00
5954;BME280;3002;42.642;24.812;2022-12-18T05:55:44;97270.59;;;13.21;100.00
5954;BME280;3002;42.642;24.812;2022-12-18T05:58:13;97249.53;;;13.28;100.00
5954;BME280;3002;42.642;24.812;2022-12-18T06:00:41;97281.16;;;13.41;100.00
5954;BME280;3002;42.642;24.812;2022-12-18T06:03:10;97288.22;;;13.61;100.00
5954;BME280;3002;42.642;24.812;2022-12-18T06:05:37;97252.03;;;13.43;100.00
5954;BME280;3002;42.642;24.812;2022-12-18T06:08:03;97256.16;;;13.35;100.00
5954;BME280;3002;42.642;24.812;2022-12-18T06:10:29;97251.59;;;13.36;100.00
5954;BME280;3002;42.642;24.812;2022-12-18T06:12:55;97300.66;;;13.62;100.00
5954;BME280;3002;42.642;24.812;2022-12-18T06:15:21;97296.97;;;13.77;100.00
5954;BME280;3002;42.642;24.812;2022-12-18T06:17:48;97280.97;;;13.37;100.00
5954;BME280;3002;42.642;24.812;2022-12-18T06:20:14;97251.78;;;13.16;100.00
5954;BME280;3002;42.642;24.812;2022-12-18T06:22:43;97312.63;;;13.75;100.00
5954;BME280;3002;42.642;24.812;2022-12-18T06:25:10;97279.69;;;13.54;100.00
5954;BME280;3002;42.642;24.812;2022-12-18T06:27:59;97330.09;;;13.53;100.00
5954;BME280;3002;42.642;24.812;2022-12-18T06:30:27;97319.25;;;13.58;100.00
5954;BME280;3002;42.642;24.812;2022-12-18T06:32:53;97316.81;;;13.62;100.00
5954;BME280;3002;42.642;24.812;2022-12-18T06:35:20;97345.78;;;13.46;100.00
5954;BME280;3002;42.642;24.812;2022-12-18T06:37:45;97318.28;;;13.73;100.00
5954;BME280;3002;42.642;24.812;2022-12-18T06:40:13;97327.38;;;14.06;100.00
5954;BME280;3002;42.642;24.812;2022-12-18T06:42:40;97343.69;;;14.15;100.00
5954;BME280;3002;42.642;24.812;2022-12-18T06:45:37;97360.00;;;13.81;100.00
5954;BME280;3002;42.642;24.812;2022-12-18T06:48:09;97351.06;;;13.85;100.00
5954;BME280;3002;42.642;24.812;2022-12-18T06:50:42;97335.09;;;13.89;100.00
5954;BME280;3002;42.642;24.812;2022-12-18T06:53:09;97345.44;;;13.82;100.00
5954;BME280;3002;42.642;24.812;2022-12-18T06:55:35;97361.28;;;14.12;100.00
5954;BME280;3002;42.642;24.812;2022-12-18T06:58:01;97367.00;;;14.30;100.00
5954;BME280;3002;42.642;24.812;2022-12-18T07:00:30;97355.78;;;13.99;100.00
5954;BME280;3002;42.642;24.812;2022-12-18T07:02:55;97379.66;;;14.10;100.00
5954;BME280;3002;42.642;24.812;2022-12-18T07:05:21;97348.25;;;13.96;100.00
5954;BME280;3002;42.642;24.812;2022-12-18T07:07:48;97374.63;;;13.75;100.00
5954;BME280;3002;42.642;24.812;2022-12-18T07:10:14;97375.41;;;14.04;100.00
5954;BME280;3002;42.642;24.812;2022-12-18T07:12:45;97387.00;;;14.05;100.00
5954;BME280;3002;42.642;24.812;2022-12-18T07:15:14;97359.72;;;14.06;100.00
5954;BME280;3002;42.642;24.812;2022-12-18T07:17:39;97349.03;;;13.96;100.00
5954;BME280;3002;42.642;24.812;2022-12-18T07:20:05;97366.72;;;14.31;100.00
5954;BME280;3002;42.642;24.812;2022-12-18T07:22:34;97392.09;;;14.54;100.00
5954;BME280;3002;42.642;24.812;2022-12-18T07:25:03;97390.50;;;14.91;100.00
5954;BME280;3002;42.642;24.812;2022-12-18T07:27:29;97369.41;;;14.93;100.00
5954;BME280;3002;42.642;24.812;2022-12-18T07:29:55;97365.78;;;15.35;100.00
5954;BME280;3002;42.642;24.812;2022-12-18T07:32:20;97408.63;;;14.90;100.00
5954;BME280;3002;42.642;24.812;2022-12-18T07:34:46;97391.16;;;15.20;100.00
5954;BME280;3002;42.642;24.812;2022-12-18T07:37:11;97404.47;;;15.68;100.00
5954;BME280;3002;42.642;24.812;2022-12-18T07:39:37;97407.94;;;16.01;96.85
5954;BME280;3002;42.642;24.812;2022-12-18T07:42:02;97390.94;;;15.68;96.60
5954;BME280;3002;42.642;24.812;2022-12-18T07:44:56;97412.53;;;16.01;95.54
5954;BME280;3002;42.642;24.812;2022-12-18T07:47:21;97390.78;;;15.92;98.40
5954;BME280;3002;42.642;24.812;2022-12-18T07:49:47;97387.28;;;15.59;100.00
5954;BME280;3002;42.642;24.812;2022-12-18T07:52:12;97420.69;;;16.15;97.39
5954;BME280;3002;42.642;24.812;2022-12-18T07:54:38;97413.06;;;16.17;97.02
5954;BME280;3002;42.642;24.812;2022-12-18T07:57:04;97413.78;;;15.76;98.91
5954;BME280;3002;42.642;24.812;2022-12-18T07:59:30;97405.44;;;16.05;95.11
5954;BME280;3002;42.642;24.812;2022-12-18T08:01:55;97421.59;;;16.24;94.37
5954;BME280;3002;42.642;24.812;2022-12-18T08:04:20;97382.94;;;15.44;96.56
5954;BME280;3002;42.642;24.812;2022-12-18T08:06:46;97374.41;;;15.70;93.78
5954;BME280;3002;42.642;24.812;2022-12-18T08:09:12;97411.31;;;15.93;91.19
5954;BME280;3002;42.642;24.812;2022-12-18T08:11:40;97401.75;;;15.36;96.54
5954;BME280;3002;42.642;24.812;2022-12-18T08:14:06;97397.56;;;15.43;98.17
5954;BME280;3002;42.642;24.812;2022-12-18T08:16:31;97412.16;;;16.21;92.58
5954;BME280;3002;42.642;24.812;2022-12-18T08:18:57;97376.28;;;15.04;99.32
5954;BME280;3002;42.642;24.812;2022-12-18T08:21:25;97424.88;;;15.23;99.79
5954;BME280;3002;42.642;24.812;2022-12-18T08:23:52;97431.44;;;16.75;90.20
5954;BME280;3002;42.642;24.812;2022-12-18T08:26:19;97440.34;;;16.48;89.23
5954;BME280;3002;42.642;24.812;2022-12-18T08:28:45;97430.25;;;15.79;92.30
5954;BME280;3002;42.642;24.812;2022-12-18T08:31:10;97440.28;;;15.60;93.83
5954;BME280;3002;42.642;24.812;2022-12-18T08:33:37;97446.34;;;15.33;98.01
5954;BME280;3002;42.642;24.812;2022-12-18T08:36:03;97446.25;;;16.36;87.04
5954;BME280;3002;42.642;24.812;2022-12-18T08:38:29;97439.25;;;15.56;88.77
5954;BME280;3002;42.642;24.812;2022-12-18T08:41:02;97446.41;;;15.98;88.79
5954;BME280;3002;42.642;24.812;2022-12-18T08:43:28;97440.13;;;16.17;85.95
5954;BME280;3002;42.642;24.812;2022-12-18T08:46:13;97446.88;;;16.33;84.46
5954;BME280;3002;42.642;24.812;2022-12-18T08:48:38;97442.75;;;16.49;84.78
5954;BME280;3002;42.642;24.812;2022-12-18T08:51:04;97453.19;;;16.97;81.20
5954;BME280;3002;42.642;24.812;2022-12-18T08:53:29;97447.19;;;17.45;77.81
5954;BME280;3002;42.642;24.812;2022-12-18T08:55:56;97455.25;;;17.95;74.43
5954;BME280;3002;42.642;24.812;2022-12-18T08:58:22;97452.44;;;18.09;72.17
5954;BME280;3002;42.642;24.812;2022-12-18T09:00:48;97427.22;;;17.77;73.20
5954;BME280;3002;42.642;24.812;2022-12-18T09:34:07;97453.88;;;16.34;86.75
5954;BME280;3002;42.642;24.812;2022-12-18T09:36:32;97441.53;;;16.42;84.07
5954;BME280;3002;42.642;24.812;2022-12-18T09:38:58;97465.63;;;16.71;84.22
5954;BME280;3002;42.642;24.812;2022-12-18T09:41:40;97459.13;;;16.72;88.31
5954;BME280;3002;42.642;24.812;2022-12-18T09:46:47;97452.59;;;16.45;89.62
5954;BME280;3002;42.642;24.812;2022-12-18T09:49:22;97450.25;;;16.66;87.25
5954;BME280;3002;42.642;24.812;2022-12-18T09:54:38;97444.50;;;15.99;92.46
5954;BME280;3002;42.642;24.812;2022-12-18T09:57:18;97446.84;;;16.47;87.81
5954;BME280;3002;42.642;24.812;2022-12-18T09:59:50;97453.06;;;16.61;84.90
5954;BME280;3002;42.642;24.812;2022-12-18T10:02:20;97454.00;;;16.56;84.93
5954;BME280;3002;42.642;24.812;2022-12-18T10:05:07;97451.56;;;16.41;83.58
5954;BME280;3002;42.642;24.812;2022-12-18T10:07:50;97461.78;;;16.30;83.92
5954;BME280;3002;42.642;24.812;2022-12-18T10:10:47;97454.78;;;16.43;86.29
5954;BME280;3002;42.642;24.812;2022-12-18T10:13:23;97455.97;;;16.23;86.61
5954;BME280;3002;42.642;24.812;2022-12-18T10:16:17;97465.06;;;15.67;90.98
5954;BME280;3002;42.642;24.812;2022-12-18T10:21:18;97465.50;;;14.75;94.09
5954;BME280;3002;42.642;24.812;2022-12-18T10:23:51;97463.13;;;14.92;93.88
5954;BME280;3002;42.642;24.812;2022-12-18T10:26:20;97461.28;;;14.69;97.62
5954;BME280;3002;42.642;24.812;2022-12-18T10:28:45;97432.13;;;15.27;91.02
5954;BME280;3002;42.642;24.812;2022-12-18T10:31:18;97458.81;;;15.86;86.92
5954;BME280;3002;42.642;24.812;2022-12-18T10:33:43;97430.28;;;15.23;90.51
5954;BME280;3002;42.642;24.812;2022-12-18T10:36:09;97462.78;;;14.99;92.89
5954;BME280;3002;42.642;24.812;2022-12-18T10:38:35;97476.44;;;15.08;93.21
5954;BME280;3002;42.642;24.812;2022-12-18T10:41:02;97472.91;;;14.69;96.81
5954;BME280;3002;42.642;24.812;2022-12-18T10:43:38;97483.00;;;14.59;100.00
5954;BME280;3002;42.642;24.812;2022-12-18T10:51:05;97484.09;;;15.57;97.81
5954;BME280;3002;42.642;24.812;2022-12-18T10:53:33;97457.91;;;14.58;95.52
5954;BME280;3002;42.642;24.812;2022-12-18T10:55:59;97446.44;;;14.90;94.06
5954;BME280;3002;42.642;24.812;2022-12-18T11:01:14;97488.34;;;15.07;85.48
5954;BME280;3002;42.642;24.812;2022-12-18T11:03:46;97483.03;;;15.20;82.22
5954;BME280;3002;42.642;24.812;2022-12-18T11:06:20;97486.38;;;14.93;83.94
5954;BME280;3002;42.642;24.812;2022-12-18T11:09:04;97493.53;;;14.02;90.03
5954;BME280;3002;42.642;24.812;2022-12-18T11:11:31;97500.88;;;14.55;89.70
5954;BME280;3002;42.642;24.812;2022-12-18T11:16:27;97505.44;;;15.40;80.14
5954;BME280;3002;42.642;24.812;2022-12-18T11:19:13;97508.75;;;15.74;79.76
5954;BME280;3002;42.642;24.812;2022-12-18T11:21:41;97516.09;;;14.40;89.09
5954;BME280;3002;42.642;24.812;2022-12-18T11:24:19;97503.25;;;14.56;86.73
5954;BME280;3002;42.642;24.812;2022-12-18T11:26:46;97476.00;;;14.58;80.75
5954;BME280;3002;42.642;24.812;2022-12-18T11:29:17;97490.47;;;14.67;82.81
5954;BME280;3002;42.642;24.812;2022-12-18T11:31:43;97489.19;;;14.83;81.27
5954;BME280;3002;42.642;24.812;2022-12-18T11:34:31;97516.75;;;14.27;80.76
5954;BME280;3002;42.642;24.812;2022-12-18T11:36:59;97513.91;;;14.42;80.26
5954;BME280;3002;42.642;24.812;2022-12-18T11:42:38;97529.06;;;14.38;79.48
5954;BME280;3002;42.642;24.812;2022-12-18T11:50:57;97527.81;;;14.60;77.71
5954;BME280;3002;42.642;24.812;2022-12-18T11:53:25;97524.50;;;14.63;77.47
5954;BME280;3002;42.642;24.812;2022-12-18T11:59:03;97521.06;;;14.81;75.35
5954;BME280;3002;42.642;24.812;2022-12-18T12:04:34;97514.94;;;14.76;75.32
5954;BME280;3002;42.642;24.812;2022-12-18T12:12:27;97514.41;;;14.20;79.62
5954;BME280;3002;42.642;24.812;2022-12-18T12:15:13;97520.88;;;14.19;81.51
5954;BME280;3002;42.642;24.812;2022-12-18T12:18:05;97526.47;;;13.99;83.78
5954;BME280;3002;42.642;24.812;2022-12-18T12:21:03;97533.06;;;14.17;83.68
5954;BME280;3002;42.642;24.812;2022-12-18T12:23:55;97543.91;;;14.12;83.26
5954;BME280;3002;42.642;24.812;2022-12-18T12:39:51;97548.97;;;13.45;91.59
5954;BME280;3002;42.642;24.812;2022-12-18T12:42:32;97552.59;;;13.64;91.52
5954;BME280;3002;42.642;24.812;2022-12-18T12:45:49;97563.03;;;13.76;91.87
5954;BME280;3002;42.642;24.812;2022-12-18T12:50:52;97545.53;;;13.34;94.84
5954;BME280;3002;42.642;24.812;2022-12-18T12:53:32;97575.72;;;13.76;92.49
5954;BME280;3002;42.642;24.812;2022-12-18T12:55:59;97574.38;;;13.24;95.29
5954;BME280;3002;42.642;24.812;2022-12-18T12:58:34;97566.91;;;13.60;93.96
5954;BME280;3002;42.642;24.812;2022-12-18T13:04:08;97579.75;;;13.34;93.94
5954;BME280;3002;42.642;24.812;2022-12-18T13:06:42;97589.44;;;13.35;95.30
5954;BME280;3002;42.642;24.812;2022-12-18T13:09:09;97558.81;;;13.10;97.25
5954;BME280;3002;42.642;24.812;2022-12-18T13:11:42;97600.16;;;13.45;95.06
5954;BME280;3002;42.642;24.812;2022-12-18T13:14:33;97597.41;;;13.55;96.18
5954;BME280;3002;42.642;24.812;2022-12-18T13:19:52;97614.94;;;13.53;94.78
5954;BME280;3002;42.642;24.812;2022-12-18T13:22:48;97616.84;;;13.47;93.53
5954;BME280;3002;42.642;24.812;2022-12-18T13:25:34;97622.84;;;13.29;92.98
5954;BME280;3002;42.642;24.812;2022-12-18T13:28:08;97625.56;;;13.24;94.10
5954;BME280;3002;42.642;24.812;2022-12-18T13:40:56;97622.97;;;12.88;97.26
5954;BME280;3002;42.642;24.812;2022-12-18T13:43:26;97626.34;;;13.29;96.77
5954;BME280;3002;42.642;24.812;2022-12-18T13:46:18;97642.00;;;13.27;95.00
5954;BME280;3002;42.642;24.812;2022-12-18T13:48:53;97619.38;;;13.23;95.01
5954;BME280;3002;42.642;24.812;2022-12-18T13:51:20;97624.84;;;12.93;100.00
5954;BME280;3002;42.642;24.812;2022-12-18T13:53:50;97641.50;;;13.00;100.00
5954;BME280;3002;42.642;24.812;2022-12-18T13:56:17;97652.78;;;13.17;99.33
5954;BME280;3002;42.642;24.812;2022-12-18T13:58:42;97662.22;;;13.15;99.11
5954;BME280;3002;42.642;24.812;2022-12-18T14:01:24;97665.97;;;13.24;99.40
5954;BME280;3002;42.642;24.812;2022-12-18T14:04:12;97647.91;;;13.19;97.56
5954;BME280;3002;42.642;24.812;2022-12-18T14:06:38;97653.88;;;13.01;95.80
5954;BME280;3002;42.642;24.812;2022-12-18T14:09:04;97652.56;;;13.03;96.02
5954;BME280;3002;42.642;24.812;2022-12-18T14:11:30;97656.84;;;12.99;98.26
5954;BME280;3002;42.642;24.812;2022-12-18T14:13:56;97646.16;;;12.69;99.51
5954;BME280;3002;42.642;24.812;2022-12-18T14:16:22;97664.13;;;12.94;99.75
5954;BME280;3002;42.642;24.812;2022-12-18T14:18:56;97670.03;;;13.11;100.00
5954;BME280;3002;42.642;24.812;2022-12-18T14:21:26;97664.97;;;12.84;100.00
5954;BME280;3002;42.642;24.812;2022-12-18T14:24:04;97671.41;;;12.98;100.00
5954;BME280;3002;42.642;24.812;2022-12-18T14:26:31;97674.06;;;13.13;100.00
5954;BME280;3002;42.642;24.812;2022-12-18T14:29:00;97678.38;;;13.15;100.00
5954;BME280;3002;42.642;24.812;2022-12-18T14:31:29;97687.78;;;13.12;100.00
5954;BME280;3002;42.642;24.812;2022-12-18T14:33:55;97683.78;;;12.94;100.00
5954;BME280;3002;42.642;24.812;2022-12-18T14:36:31;97676.56;;;12.90;100.00
5954;BME280;3002;42.642;24.812;2022-12-18T14:38:59;97696.72;;;13.07;100.00
5954;BME280;3002;42.642;24.812;2022-12-18T14:41:25;97691.88;;;12.94;100.00
5954;BME280;3002;42.642;24.812;2022-12-18T14:43:53;97671.16;;;12.84;100.00
5954;BME280;3002;42.642;24.812;2022-12-18T14:46:42;97703.94;;;13.12;100.00
5954;BME280;3002;42.642;24.812;2022-12-18T14:51:55;97694.56;;;12.89;100.00
5954;BME280;3002;42.642;24.812;2022-12-18T14:54:22;97698.34;;;12.88;100.00
5954;BME280;3002;42.642;24.812;2022-12-18T14:56:50;97669.56;;;12.73;100.00
5954;BME280;3002;42.642;24.812;2022-12-18T14:59:20;97704.28;;;12.85;100.00
5954;BME280;3002;42.642;24.812;2022-12-18T15:02:01;97712.88;;;12.87;100.00
5954;BME280;3002;42.642;24.812;2022-12-18T15:04:30;97700.50;;;12.86;100.00
5954;BME280;3002;42.642;24.812;2022-12-18T15:07:19;97725.53;;;12.71;100.00
5954;BME280;3002;42.642;24.812;2022-12-18T15:12:32;97718.28;;;12.51;100.00
5954;BME280;3002;42.642;24.812;2022-12-18T15:14:58;97697.53;;;12.06;100.00
5954;BME280;3002;42.642;24.812;2022-12-18T15:17:24;97713.66;;;12.21;100.00
5954;BME280;3002;42.642;24.812;2022-12-18T15:19:53;97730.66;;;12.52;100.00
5954;BME280;3002;42.642;24.812;2022-12-18T15:22:27;97743.81;;;12.33;100.00
5954;BME280;3002;42.642;24.812;2022-12-18T15:24:54;97743.84;;;12.49;100.00
5954;BME280;3002;42.642;24.812;2022-12-18T15:32:36;97709.94;;;11.49;100.00
5954;BME280;3002;42.642;24.812;2022-12-18T15:35:20;97694.50;;;11.24;100.00
5954;BME280;3002;42.642;24.812;2022-12-18T15:37:46;97729.03;;;11.53;100.00
5954;BME280;3002;42.642;24.812;2022-12-18T15:40:20;97741.13;;;11.56;100.00
5954;BME280;3002;42.642;24.812;2022-12-18T15:42:48;97738.06;;;11.89;100.00
5954;BME280;3002;42.642;24.812;2022-12-18T15:45:33;97721.94;;;11.32;100.00
5954;BME280;3002;42.642;24.812;2022-12-18T15:47:59;97747.47;;;11.82;100.00
5954;BME280;3002;42.642;24.812;2022-12-18T15:50:24;97756.47;;;11.60;100.00
5954;BME280;3002;42.642;24.812;2022-12-18T15:52:52;97732.09;;;11.77;100.00
5954;BME280;3002;42.642;24.812;2022-12-18T15:55:21;97750.72;;;12.04;100.00
5954;BME280;3002;42.642;24.812;2022-12-18T15:58:06;97759.59;;;12.04;100.00
5954;BME280;3002;42.642;24.812;2022-12-18T16:00:34;97754.53;;;12.23;100.00